createdAt,value
2023-01-29T00:00:14.764Z,15.43
2023-01-29T00:00:46.566Z,15.68
2023-01-29T00:01:18.138Z,15.30
2023-01-29T00:01:49.751Z,15.93
2023-01-29T00:02:21.552Z,15.32
2023-01-29T00:02:53.173Z,14.98
2023-01-29T00:03:24.755Z,16.20
2023-01-29T00:03:56.794Z,15.82
2023-01-29T00:04:28.296Z,16.05
2023-01-29T00:05:09.995Z,14.43
2023-01-29T00:05:48.920Z,16.88
2023-01-29T00:06:20.601Z,17.17
2023-01-29T00:06:52.092Z,15.43
2023-01-29T00:07:23.997Z,15.68
2023-01-29T00:07:56.965Z,15.00
2023-01-29T00:08:28.733Z,15.15
2023-01-29T00:09:00.847Z,15.65
2023-01-29T00:09:32.405Z,17.17
2023-01-29T00:10:04.135Z,15.30
2023-01-29T00:10:35.694Z,15.10
2023-01-29T00:11:08.861Z,16.85
2023-01-29T00:11:40.532Z,16.73
2023-01-29T00:12:12.036Z,15.07
2023-01-29T00:12:43.562Z,15.50
2023-01-29T00:13:15.075Z,15.07
2023-01-29T00:13:47.244Z,16.67
2023-01-29T00:14:19.685Z,17.63
2023-01-29T00:14:51.201Z,14.63
2023-01-29T00:15:22.771Z,15.25
2023-01-29T00:15:56.332Z,16.02
2023-01-29T00:16:28.106Z,15.02
2023-01-29T00:16:59.745Z,14.95
2023-01-29T00:17:31.471Z,15.73
2023-01-29T00:18:03.071Z,14.85
2023-01-29T00:18:38.550Z,14.93
2023-01-29T00:19:10.197Z,16.10
2023-01-29T00:19:41.861Z,15.48
2023-01-29T00:20:13.561Z,14.98
2023-01-29T00:20:45.197Z,15.95
2023-01-29T00:21:18.829Z,16.15
2023-01-29T00:21:50.403Z,17.48
2023-01-29T00:22:22.098Z,15.48
2023-01-29T00:22:53.654Z,16.77
2023-01-29T00:23:25.267Z,16.10
2023-01-29T00:23:57.169Z,15.18
2023-01-29T00:24:28.923Z,14.82
2023-01-29T00:25:00.508Z,16.52
2023-01-29T00:25:32.048Z,16.63
2023-01-29T00:26:03.685Z,15.63
2023-01-29T00:26:35.434Z,16.27
2023-01-29T00:27:08.756Z,15.93
2023-01-29T00:27:40.490Z,16.73
2023-01-29T00:28:13.049Z,14.73
2023-01-29T00:28:44.721Z,14.85
2023-01-29T00:29:17.917Z,14.82
2023-01-29T00:30:09.250Z,15.25
2023-01-29T00:30:41.169Z,13.90
2023-01-29T00:31:18.945Z,15.60
2023-01-29T00:31:50.726Z,16.45
2023-01-29T00:32:22.364Z,16.55
2023-01-29T00:32:54.156Z,15.75
2023-01-29T00:33:25.701Z,14.63
2023-01-29T00:33:58.182Z,15.05
2023-01-29T00:34:30.038Z,15.55
2023-01-29T00:35:01.847Z,16.35
2023-01-29T00:35:33.924Z,15.57
2023-01-29T00:36:06.900Z,16.05
2023-01-29T00:36:38.529Z,15.98
2023-01-29T00:37:10.143Z,15.93
2023-01-29T00:37:41.742Z,16.30
2023-01-29T00:38:13.262Z,15.23
2023-01-29T00:38:44.834Z,16.67
2023-01-29T00:39:16.364Z,17.08
2023-01-29T00:39:48.546Z,16.73
2023-01-29T00:40:20.108Z,15.88
2023-01-29T00:41:10.109Z,14.95
2023-01-29T00:42:20.449Z,13.90
2023-01-29T00:43:10.799Z,15.23
2023-01-29T00:44:52.274Z,13.32
2023-01-29T00:45:23.873Z,14.10
2023-01-29T00:45:55.403Z,15.15
2023-01-29T00:46:26.981Z,14.95
2023-01-29T00:46:59.496Z,16.02
2023-01-29T00:47:31.110Z,14.57
2023-01-29T00:48:03.705Z,15.43
2023-01-29T00:48:35.400Z,15.18
2023-01-29T00:49:07.388Z,15.13
2023-01-29T00:49:38.913Z,14.68
2023-01-29T00:50:12.044Z,15.05
2023-01-29T00:50:43.745Z,15.63
2023-01-29T00:51:15.269Z,17.33
2023-01-29T00:52:09.458Z,15.80
2023-01-29T00:52:41.300Z,15.15
2023-01-29T00:53:14.137Z,15.23
2023-01-29T00:53:45.854Z,13.73
2023-01-29T00:54:17.668Z,13.90
2023-01-29T00:54:49.291Z,17.70
2023-01-29T00:55:20.913Z,16.27
2023-01-29T00:55:52.433Z,14.48
2023-01-29T00:56:25.450Z,16.30
2023-01-29T00:56:56.959Z,16.15
2023-01-29T00:57:30.492Z,16.02
2023-01-29T00:58:01.991Z,16.33
2023-01-29T00:58:36.542Z,16.63
2023-01-29T00:59:08.097Z,15.90
2023-01-29T00:59:39.639Z,16.27
2023-01-29T01:00:13.954Z,15.88
2023-01-29T01:00:45.615Z,16.10
2023-01-29T01:01:17.335Z,16.30
2023-01-29T01:02:07.236Z,16.75
2023-01-29T01:02:57.631Z,15.45
2023-01-29T01:03:33.904Z,14.85
2023-01-29T01:04:05.824Z,16.52
2023-01-29T01:04:38.453Z,14.70
2023-01-29T01:05:14.241Z,15.75
2023-01-29T01:05:45.817Z,14.82
2023-01-29T01:06:17.332Z,16.13
2023-01-29T01:06:48.833Z,15.32
2023-01-29T01:07:20.788Z,14.65
2023-01-29T01:07:54.036Z,15.18
2023-01-29T01:09:00.753Z,15.75
2023-01-29T01:09:51.135Z,14.82
2023-01-29T01:10:31.176Z,15.60
2023-01-29T01:11:05.471Z,15.55
2023-01-29T01:11:37.295Z,15.57
2023-01-29T01:12:08.805Z,16.52
2023-01-29T01:12:40.340Z,16.30
2023-01-29T01:13:12.588Z,14.88
2023-01-29T01:13:44.189Z,17.45
2023-01-29T01:14:15.797Z,16.27
2023-01-29T01:14:47.865Z,15.55
2023-01-29T01:15:19.949Z,16.52
2023-01-29T01:15:51.488Z,16.58
2023-01-29T01:16:23.059Z,16.25
2023-01-29T01:16:54.589Z,16.45
2023-01-29T01:17:26.310Z,16.38
2023-01-29T01:17:59.806Z,16.40
2023-01-29T01:18:31.607Z,17.88
2023-01-29T01:19:04.213Z,18.88
2023-01-29T01:19:37.434Z,16.27
2023-01-29T01:20:10.760Z,15.52
2023-01-29T01:20:42.292Z,16.20
2023-01-29T01:21:13.834Z,16.67
2023-01-29T01:21:48.125Z,17.67
2023-01-29T01:22:19.963Z,18.02
2023-01-29T01:22:53.656Z,17.00
2023-01-29T01:23:25.877Z,17.95
2023-01-29T01:23:57.530Z,18.20
2023-01-29T01:24:29.230Z,18.83
2023-01-29T01:25:00.896Z,20.77
2023-01-29T01:25:32.876Z,19.70
2023-01-29T01:26:09.019Z,20.10
2023-01-29T01:26:40.670Z,19.08
2023-01-29T01:27:13.039Z,21.80
2023-01-29T01:27:44.930Z,21.70
2023-01-29T01:28:16.508Z,20.73
2023-01-29T01:28:48.146Z,21.98
2023-01-29T01:29:19.664Z,21.05
2023-01-29T01:29:51.338Z,20.13
2023-01-29T01:30:23.748Z,20.73
2023-01-29T01:30:55.505Z,21.17
2023-01-29T01:31:27.132Z,21.63
2023-01-29T01:31:59.735Z,20.65
2023-01-29T01:32:31.456Z,22.17
2023-01-29T01:33:03.057Z,20.17
2023-01-29T01:33:37.324Z,19.52
2023-01-29T01:34:08.858Z,20.50
2023-01-29T01:34:40.402Z,19.70
2023-01-29T01:35:13.109Z,21.73
2023-01-29T01:35:44.721Z,19.67
2023-01-29T01:36:17.154Z,19.92
2023-01-29T01:36:49.070Z,20.63
2023-01-29T01:37:22.755Z,20.35
2023-01-29T01:37:54.339Z,19.98
2023-01-29T01:38:25.858Z,21.40
2023-01-29T01:38:57.395Z,20.95
2023-01-29T01:39:29.071Z,22.75
2023-01-29T01:40:01.216Z,21.35
2023-01-29T01:40:32.858Z,20.88
2023-01-29T01:41:04.424Z,19.10
2023-01-29T01:41:36.172Z,21.20
2023-01-29T01:42:13.668Z,20.35
2023-01-29T01:42:51.471Z,20.13
2023-01-29T01:43:23.088Z,19.60
2023-01-29T01:44:02.251Z,19.60
2023-01-29T01:45:06.358Z,19.40
2023-01-29T01:45:38.344Z,19.13
2023-01-29T01:46:10.251Z,19.50
2023-01-29T01:46:41.812Z,20.05
2023-01-29T01:47:14.020Z,21.13
2023-01-29T01:47:49.231Z,19.30
2023-01-29T01:48:25.295Z,19.92
2023-01-29T01:49:04.183Z,20.05
2023-01-29T01:49:35.713Z,19.75
2023-01-29T01:50:17.592Z,21.48
2023-01-29T01:51:05.244Z,19.77
2023-01-29T01:51:43.366Z,20.70
2023-01-29T01:52:16.548Z,18.45
2023-01-29T01:52:52.755Z,20.80
2023-01-29T01:53:34.364Z,18.83
2023-01-29T01:54:13.121Z,19.08
2023-01-29T01:54:44.944Z,19.25
2023-01-29T01:55:20.214Z,20.73
2023-01-29T01:55:59.162Z,20.63
2023-01-29T01:56:38.403Z,20.27
2023-01-29T01:57:16.050Z,19.30
2023-01-29T01:57:52.511Z,19.70
2023-01-29T01:58:34.821Z,19.85
2023-01-29T01:59:10.185Z,19.88
2023-01-29T01:59:48.781Z,19.10
2023-01-29T02:00:21.839Z,19.52
2023-01-29T02:00:53.754Z,19.92
2023-01-29T02:01:30.122Z,20.33
2023-01-29T02:02:20.404Z,20.13
2023-01-29T02:03:10.968Z,18.85
2023-01-29T02:04:11.520Z,18.10
2023-01-29T02:05:04.880Z,17.55
2023-01-29T02:05:56.162Z,17.38
2023-01-29T02:06:46.680Z,17.17
2023-01-29T02:07:37.062Z,14.52
2023-01-29T02:08:27.973Z,15.48
2023-01-29T02:09:24.874Z,15.88
2023-01-29T02:10:02.204Z,15.52
2023-01-29T02:10:43.621Z,14.93
2023-01-29T02:11:15.206Z,16.75
2023-01-29T02:11:46.897Z,15.98
2023-01-29T02:12:19.662Z,16.33
2023-01-29T02:12:51.488Z,16.95
2023-01-29T02:13:23.204Z,15.93
2023-01-29T02:13:54.829Z,16.42
2023-01-29T02:14:32.059Z,16.52
2023-01-29T02:15:04.686Z,15.95
2023-01-29T02:15:36.545Z,17.17
2023-01-29T02:16:08.316Z,16.73
2023-01-29T02:16:39.886Z,17.83
2023-01-29T02:17:14.227Z,16.90
2023-01-29T02:17:48.410Z,17.65
2023-01-29T02:18:21.557Z,17.08
2023-01-29T02:18:53.299Z,16.75
2023-01-29T02:20:00.651Z,15.30
2023-01-29T02:20:32.457Z,16.98
2023-01-29T02:21:25.274Z,16.40
2023-01-29T02:22:34.415Z,15.02
2023-01-29T02:23:27.281Z,16.35
2023-01-29T02:24:17.475Z,15.45
2023-01-29T02:25:17.097Z,15.73
2023-01-29T02:26:13.427Z,15.35
2023-01-29T02:26:55.775Z,15.38
2023-01-29T02:27:48.112Z,14.77
2023-01-29T02:28:36.810Z,15.85
2023-01-29T02:29:33.690Z,15.45
2023-01-29T02:30:28.799Z,14.75
2023-01-29T02:31:14.951Z,15.45
2023-01-29T02:32:12.099Z,16.02
2023-01-29T02:32:58.537Z,14.25
2023-01-29T02:33:37.071Z,14.15
2023-01-29T02:34:59.785Z,15.70
2023-01-29T02:35:37.616Z,14.27
2023-01-29T02:36:15.189Z,13.88
2023-01-29T02:36:51.428Z,17.55
2023-01-29T02:37:38.446Z,14.90
2023-01-29T02:38:13.069Z,14.82
2023-01-29T02:38:56.784Z,15.57
2023-01-29T02:39:38.231Z,15.18
2023-01-29T02:40:28.656Z,17.95
2023-01-29T02:41:02.325Z,15.45
2023-01-29T02:41:43.637Z,17.45
2023-01-29T02:42:37.686Z,16.80
2023-01-29T02:43:19.397Z,15.40
2023-01-29T02:44:03.569Z,14.70
2023-01-29T02:44:40.439Z,14.30
2023-01-29T02:45:23.094Z,16.63
2023-01-29T02:46:13.528Z,17.13
2023-01-29T02:47:11.644Z,15.07
2023-01-29T02:47:48.591Z,15.60
2023-01-29T02:48:23.149Z,15.93
2023-01-29T02:49:16.094Z,16.73
2023-01-29T02:50:05.144Z,16.17
2023-01-29T02:51:26.562Z,16.17
2023-01-29T02:52:04.759Z,16.83
2023-01-29T02:52:56.803Z,16.25
2023-01-29T02:53:36.084Z,14.90
2023-01-29T02:54:21.250Z,15.73
2023-01-29T02:55:03.070Z,16.13
2023-01-29T02:56:49.207Z,13.25
2023-01-29T02:57:24.446Z,14.75
2023-01-29T02:58:02.621Z,14.20
2023-01-29T02:58:43.813Z,16.08
2023-01-29T02:59:20.565Z,16.27
2023-01-29T02:59:59.298Z,17.38
2023-01-29T03:00:35.195Z,14.18
2023-01-29T03:01:11.567Z,16.42
2023-01-29T03:01:53.831Z,16.48
2023-01-29T03:02:36.116Z,17.45
2023-01-29T03:03:23.265Z,17.77
2023-01-29T03:03:59.405Z,15.18
2023-01-29T03:04:33.801Z,16.55
2023-01-29T03:05:11.137Z,16.85
2023-01-29T03:05:57.069Z,16.10
2023-01-29T03:06:49.463Z,15.70
2023-01-29T03:07:44.591Z,16.02
2023-01-29T03:08:37.380Z,16.63
2023-01-29T03:09:27.010Z,15.40
2023-01-29T03:09:58.954Z,15.88
2023-01-29T03:10:38.120Z,16.17
2023-01-29T03:11:13.896Z,16.63
2023-01-29T03:11:51.926Z,17.52
2023-01-29T03:12:34.184Z,16.15
2023-01-29T03:13:26.849Z,18.63
2023-01-29T03:14:06.334Z,16.58
2023-01-29T03:14:58.203Z,17.15
2023-01-29T03:15:41.432Z,16.65
2023-01-29T03:16:31.295Z,17.83
2023-01-29T03:17:03.497Z,16.17
2023-01-29T03:17:58.413Z,17.55
2023-01-29T03:18:41.273Z,15.88
2023-01-29T03:19:19.989Z,17.40
2023-01-29T03:19:51.653Z,15.73
2023-01-29T03:20:32.535Z,16.25
2023-01-29T03:21:29.033Z,15.57
2023-01-29T03:22:04.218Z,17.77
2023-01-29T03:22:37.371Z,17.25
2023-01-29T03:23:12.105Z,17.65
2023-01-29T03:24:02.815Z,16.77
2023-01-29T03:25:04.967Z,17.40
2023-01-29T03:25:57.550Z,16.05
2023-01-29T03:26:51.659Z,16.40
2023-01-29T03:27:45.670Z,17.10
2023-01-29T03:28:36.728Z,15.48
2023-01-29T03:29:28.277Z,14.63
2023-01-29T03:30:19.881Z,16.02
2023-01-29T03:31:25.743Z,16.58
2023-01-29T03:32:06.750Z,15.00
2023-01-29T03:32:38.651Z,14.57
2023-01-29T03:33:11.629Z,16.80
2023-01-29T03:33:49.749Z,16.02
2023-01-29T03:34:28.515Z,17.05
2023-01-29T03:35:03.996Z,17.83
2023-01-29T03:35:40.445Z,16.10
2023-01-29T03:36:17.912Z,18.75
2023-01-29T03:36:56.100Z,18.30
2023-01-29T03:37:35.027Z,16.67
2023-01-29T03:38:11.285Z,18.73
2023-01-29T03:38:43.690Z,17.25
2023-01-29T03:39:16.149Z,18.13
2023-01-29T03:39:48.742Z,16.55
2023-01-29T03:40:20.582Z,17.20
2023-01-29T03:40:57.157Z,18.65
2023-01-29T03:41:33.315Z,17.90
2023-01-29T03:42:26.256Z,16.90
2023-01-29T03:43:15.518Z,16.73
2023-01-29T03:44:07.336Z,16.13
2023-01-29T03:45:19.352Z,15.27
2023-01-29T03:46:14.344Z,16.13
2023-01-29T03:46:56.257Z,17.60
2023-01-29T03:47:36.870Z,17.95
2023-01-29T03:48:12.794Z,15.15
2023-01-29T03:48:57.936Z,16.42
2023-01-29T03:49:50.294Z,17.58
2023-01-29T03:50:32.894Z,17.02
2023-01-29T03:51:25.505Z,16.52
2023-01-29T03:52:09.676Z,15.60
2023-01-29T03:52:47.845Z,18.55
2023-01-29T03:53:47.412Z,17.27
2023-01-29T03:54:26.432Z,16.85
2023-01-29T03:55:10.599Z,18.20
2023-01-29T03:55:49.721Z,16.83
2023-01-29T03:56:25.401Z,15.93
2023-01-29T03:57:02.250Z,17.95
2023-01-29T03:57:36.139Z,19.50
2023-01-29T03:58:32.687Z,17.05
2023-01-29T03:59:12.751Z,17.23
2023-01-29T04:00:16.792Z,17.25
2023-01-29T04:01:03.435Z,17.50
2023-01-29T04:01:52.632Z,17.02
2023-01-29T04:02:33.558Z,16.90
2023-01-29T04:03:24.657Z,16.55
2023-01-29T04:04:15.501Z,18.25
2023-01-29T04:04:51.922Z,15.50
2023-01-29T04:05:28.072Z,17.98
2023-01-29T04:06:18.931Z,18.63
2023-01-29T04:07:09.146Z,16.67
2023-01-29T04:07:41.934Z,15.90
2023-01-29T04:08:17.824Z,18.40
2023-01-29T04:09:02.512Z,16.92
2023-01-29T04:09:40.134Z,16.23
2023-01-29T04:10:16.098Z,17.67
2023-01-29T04:10:49.981Z,17.77
2023-01-29T04:11:23.003Z,17.02
2023-01-29T04:12:04.297Z,17.83
2023-01-29T04:12:40.339Z,17.80
2023-01-29T04:13:13.998Z,16.98
2023-01-29T04:13:48.162Z,17.88
2023-01-29T04:14:22.304Z,17.25
2023-01-29T04:14:56.895Z,18.48
2023-01-29T04:15:30.885Z,18.63
2023-01-29T04:16:07.687Z,19.33
2023-01-29T04:17:02.248Z,16.85
2023-01-29T04:17:45.906Z,17.00
2023-01-29T04:18:28.132Z,17.50
2023-01-29T04:19:08.275Z,18.48
2023-01-29T04:19:44.938Z,18.60
2023-01-29T04:20:17.328Z,18.25
2023-01-29T04:20:49.889Z,17.90
2023-01-29T04:21:21.747Z,20.75
2023-01-29T04:22:02.138Z,18.23
2023-01-29T04:22:36.660Z,16.90
2023-01-29T04:23:20.523Z,18.30
2023-01-29T04:23:54.391Z,19.45
2023-01-29T04:24:26.029Z,18.77
2023-01-29T04:25:02.557Z,17.15
2023-01-29T04:25:45.241Z,18.33
2023-01-29T04:26:23.938Z,17.77
2023-01-29T04:27:28.379Z,16.35
2023-01-29T04:28:10.517Z,18.70
2023-01-29T04:29:01.098Z,18.55
2023-01-29T04:29:39.365Z,16.88
2023-01-29T04:30:22.029Z,15.82
2023-01-29T04:30:59.731Z,16.75
2023-01-29T04:31:44.899Z,18.17
2023-01-29T04:32:37.957Z,17.05
2023-01-29T04:33:40.224Z,18.30
2023-01-29T04:34:25.484Z,15.93
2023-01-29T04:35:02.478Z,16.08
2023-01-29T04:35:42.434Z,18.50
2023-01-29T04:36:41.851Z,16.80
2023-01-29T04:37:19.212Z,16.67
2023-01-29T04:37:59.989Z,17.55
2023-01-29T04:38:50.607Z,17.42
2023-01-29T04:39:30.684Z,16.33
2023-01-29T04:40:12.136Z,17.25
2023-01-29T04:40:48.763Z,17.73
2023-01-29T04:41:23.178Z,18.30
2023-01-29T04:42:01.656Z,17.65
2023-01-29T04:42:57.015Z,18.63
2023-01-29T04:44:10.308Z,18.35
2023-01-29T04:44:49.905Z,15.68
2023-01-29T04:45:27.225Z,18.15
2023-01-29T04:46:46.463Z,17.15
2023-01-29T04:47:35.415Z,14.82
2023-01-29T04:48:27.570Z,17.17
2023-01-29T04:49:07.413Z,17.27
2023-01-29T04:49:47.189Z,18.08
2023-01-29T04:50:32.042Z,18.88
2023-01-29T04:51:06.217Z,18.42
2023-01-29T04:52:12.825Z,17.27
2023-01-29T04:53:02.572Z,16.70
2023-01-29T04:53:48.194Z,16.90
2023-01-29T04:54:29.453Z,18.17
2023-01-29T04:55:14.483Z,19.02
2023-01-29T04:55:51.958Z,18.85
2023-01-29T04:56:58.944Z,18.33
2023-01-29T04:57:36.303Z,19.05
2023-01-29T04:58:16.845Z,19.77
2023-01-29T04:58:53.190Z,18.05
2023-01-29T04:59:33.341Z,16.95
2023-01-29T05:00:13.698Z,18.00
2023-01-29T05:00:50.324Z,18.58
2023-01-29T05:01:25.763Z,19.17
2023-01-29T05:01:59.712Z,18.92
2023-01-29T05:02:31.905Z,16.90
2023-01-29T05:03:04.087Z,17.73
2023-01-29T05:03:37.113Z,18.42
2023-01-29T05:04:12.066Z,20.33
2023-01-29T05:04:44.775Z,19.20
2023-01-29T05:05:19.398Z,18.38
2023-01-29T05:05:51.336Z,19.33
2023-01-29T05:06:23.159Z,18.83
2023-01-29T05:06:55.720Z,19.92
2023-01-29T05:07:28.849Z,19.23
2023-01-29T05:08:00.433Z,18.00
2023-01-29T05:08:33.095Z,18.38
2023-01-29T05:09:04.757Z,20.15
2023-01-29T05:09:37.237Z,18.88
2023-01-29T05:10:10.019Z,20.38
2023-01-29T05:10:42.480Z,18.38
2023-01-29T05:11:14.408Z,17.50
2023-01-29T05:11:47.369Z,20.50
2023-01-29T05:12:19.245Z,19.75
2023-01-29T05:12:56.039Z,19.17
2023-01-29T05:13:29.107Z,19.60
2023-01-29T05:14:02.722Z,18.25
2023-01-29T05:14:35.692Z,19.48
2023-01-29T05:15:14.624Z,18.50
2023-01-29T05:16:00.867Z,18.65
2023-01-29T05:16:42.189Z,19.00
2023-01-29T05:17:16.256Z,17.90
2023-01-29T05:17:47.864Z,18.48
2023-01-29T05:18:19.424Z,18.75
2023-01-29T05:18:51.210Z,19.65
2023-01-29T05:19:22.710Z,19.23
2023-01-29T05:19:55.768Z,18.30
2023-01-29T05:20:27.660Z,18.75
2023-01-29T05:21:06.828Z,21.75
2023-01-29T05:21:42.362Z,20.20
2023-01-29T05:22:17.033Z,18.90
2023-01-29T05:22:49.221Z,17.67
2023-01-29T05:23:22.430Z,19.20
2023-01-29T05:24:10.287Z,21.80
2023-01-29T05:24:41.880Z,20.45
2023-01-29T05:25:25.203Z,21.13
2023-01-29T05:25:56.865Z,23.40
2023-01-29T05:26:46.717Z,22.85
2023-01-29T05:27:39.211Z,24.70
2023-01-29T05:28:17.309Z,23.27
2023-01-29T05:28:48.855Z,23.67
2023-01-29T05:29:21.166Z,21.27
2023-01-29T05:29:53.092Z,21.85
2023-01-29T05:30:24.897Z,24.48
2023-01-29T05:30:56.984Z,23.77
2023-01-29T05:31:28.628Z,24.98
2023-01-29T05:32:00.611Z,24.02
2023-01-29T05:32:32.217Z,21.55
2023-01-29T05:33:04.645Z,24.20
2023-01-29T05:33:39.076Z,23.45
2023-01-29T05:34:10.604Z,22.88
2023-01-29T05:34:42.496Z,23.35
2023-01-29T05:35:14.172Z,23.65
2023-01-29T05:35:46.217Z,25.13
2023-01-29T05:36:18.958Z,23.88
2023-01-29T05:36:50.763Z,23.45
2023-01-29T05:37:23.007Z,24.45
2023-01-29T05:37:57.928Z,22.85
2023-01-29T05:38:29.469Z,23.23
2023-01-29T05:39:01.135Z,23.50
2023-01-29T05:39:33.029Z,24.25
2023-01-29T05:40:04.992Z,24.08
2023-01-29T05:40:37.039Z,22.42
2023-01-29T05:41:09.093Z,23.27
2023-01-29T05:41:40.786Z,22.80
2023-01-29T05:42:12.344Z,24.05
2023-01-29T05:42:44.181Z,24.77
2023-01-29T05:43:19.130Z,23.63
2023-01-29T05:43:50.686Z,24.20
2023-01-29T05:44:22.305Z,24.38
2023-01-29T05:44:53.863Z,22.27
2023-01-29T05:45:26.708Z,25.17
2023-01-29T05:45:59.905Z,23.45
2023-01-29T05:46:31.859Z,23.65
2023-01-29T05:47:03.375Z,24.27
2023-01-29T05:47:34.942Z,23.25
2023-01-29T05:48:06.634Z,24.45
2023-01-29T05:48:38.287Z,24.20
2023-01-29T05:49:09.877Z,23.20
2023-01-29T05:49:41.429Z,24.15
2023-01-29T05:50:15.274Z,23.92
2023-01-29T05:50:47.003Z,22.08
2023-01-29T05:51:18.973Z,22.70
2023-01-29T05:51:50.581Z,23.98
2023-01-29T05:52:22.113Z,23.20
2023-01-29T05:53:00.333Z,23.20
2023-01-29T05:53:33.039Z,22.50
2023-01-29T05:54:05.007Z,25.73
2023-01-29T05:54:36.546Z,23.02
2023-01-29T05:55:09.620Z,23.55
2023-01-29T05:55:45.568Z,23.67
2023-01-29T05:56:17.120Z,23.42
2023-01-29T05:56:48.635Z,24.40
2023-01-29T05:57:20.222Z,24.38
2023-01-29T05:57:51.972Z,24.40
2023-01-29T05:58:23.745Z,25.05
2023-01-29T05:58:56.218Z,24.65
2023-01-29T05:59:27.987Z,23.30
2023-01-29T05:59:59.508Z,24.48
2023-01-29T06:00:31.057Z,23.85
2023-01-29T06:01:13.883Z,23.25
2023-01-29T06:01:45.509Z,22.75
2023-01-29T06:02:17.085Z,24.67
2023-01-29T06:02:48.645Z,24.38
2023-01-29T06:03:20.181Z,23.80
2023-01-29T06:03:51.939Z,23.60
2023-01-29T06:04:23.701Z,22.63
2023-01-29T06:04:55.227Z,23.42
2023-01-29T06:05:26.785Z,22.83
2023-01-29T06:05:58.310Z,24.63
2023-01-29T06:06:29.839Z,22.83
2023-01-29T06:07:03.416Z,25.13
2023-01-29T06:07:35.993Z,24.00
2023-01-29T06:08:08.377Z,23.48
2023-01-29T06:08:40.239Z,22.13
2023-01-29T06:09:12.068Z,23.20
2023-01-29T06:09:43.650Z,23.45
2023-01-29T06:10:17.325Z,24.63
2023-01-29T06:10:49.073Z,22.88
2023-01-29T06:11:21.626Z,24.38
2023-01-29T06:11:53.206Z,23.30
2023-01-29T06:12:24.995Z,24.23
2023-01-29T06:12:56.511Z,24.10
2023-01-29T06:13:28.435Z,22.48
2023-01-29T06:13:59.972Z,23.15
2023-01-29T06:14:31.864Z,23.60
2023-01-29T06:15:03.658Z,24.13
2023-01-29T06:15:35.173Z,24.23
2023-01-29T06:16:08.140Z,23.90
2023-01-29T06:16:39.726Z,24.05
2023-01-29T06:17:11.334Z,24.88
2023-01-29T06:17:43.332Z,23.48
2023-01-29T06:18:14.878Z,25.48
2023-01-29T06:18:46.389Z,24.98
2023-01-29T06:19:18.275Z,23.10
2023-01-29T06:19:49.970Z,23.20
2023-01-29T06:20:22.233Z,25.08
2023-01-29T06:20:53.750Z,24.23
2023-01-29T06:21:25.330Z,23.02
2023-01-29T06:21:56.853Z,23.35
2023-01-29T06:22:28.380Z,22.77
2023-01-29T06:23:00.106Z,24.10
2023-01-29T06:23:32.031Z,24.80
2023-01-29T06:24:03.758Z,24.77
2023-01-29T06:24:35.603Z,24.23
2023-01-29T06:25:07.745Z,23.98
2023-01-29T06:25:39.297Z,22.25
2023-01-29T06:26:12.841Z,23.23
2023-01-29T06:26:44.393Z,22.27
2023-01-29T06:27:15.933Z,23.65
2023-01-29T06:27:50.983Z,24.27
2023-01-29T06:28:22.516Z,23.00
2023-01-29T06:28:54.111Z,24.05
2023-01-29T06:29:25.703Z,26.27
2023-01-29T06:29:57.273Z,24.05
2023-01-29T06:30:28.865Z,23.67
2023-01-29T06:31:20.960Z,24.50
2023-01-29T06:31:53.874Z,23.92
2023-01-29T06:32:25.547Z,23.25
2023-01-29T06:33:04.091Z,22.67
2023-01-29T06:33:35.668Z,23.58
2023-01-29T06:34:07.928Z,23.35
2023-01-29T06:34:39.517Z,24.25
2023-01-29T06:35:11.206Z,25.13
2023-01-29T06:35:42.726Z,25.13
2023-01-29T06:36:14.287Z,24.55
2023-01-29T06:36:45.810Z,23.92
2023-01-29T06:37:17.337Z,24.77
2023-01-29T06:37:48.969Z,23.80
2023-01-29T06:38:20.488Z,23.27
2023-01-29T06:38:52.041Z,24.80
2023-01-29T06:39:23.699Z,22.77
2023-01-29T06:39:55.252Z,24.63
2023-01-29T06:40:26.841Z,23.23
2023-01-29T06:40:58.646Z,24.65
2023-01-29T06:41:30.236Z,23.23
2023-01-29T06:42:01.835Z,23.80
2023-01-29T06:42:35.629Z,24.85
2023-01-29T06:43:07.168Z,24.77
2023-01-29T06:43:39.072Z,23.08
2023-01-29T06:44:10.622Z,24.20
2023-01-29T06:44:42.377Z,24.27
2023-01-29T06:45:13.999Z,23.65
2023-01-29T06:45:49.243Z,23.52
2023-01-29T06:46:21.060Z,23.38
2023-01-29T06:46:52.591Z,24.45
2023-01-29T06:47:24.843Z,24.42
2023-01-29T06:47:56.607Z,24.50
2023-01-29T06:48:28.196Z,23.25
2023-01-29T06:49:00.704Z,23.98
2023-01-29T06:49:32.373Z,24.52
2023-01-29T06:50:04.116Z,24.17
2023-01-29T06:50:35.644Z,24.38
2023-01-29T06:51:08.757Z,25.40
2023-01-29T06:51:40.252Z,22.33
2023-01-29T06:52:11.781Z,23.42
2023-01-29T06:52:43.327Z,24.80
2023-01-29T06:53:15.905Z,24.05
2023-01-29T06:53:47.375Z,24.67
2023-01-29T06:54:18.917Z,24.40
2023-01-29T06:54:50.492Z,25.35
2023-01-29T06:55:21.984Z,24.33
2023-01-29T06:55:54.071Z,24.48
2023-01-29T06:56:25.699Z,23.45
2023-01-29T06:56:57.256Z,24.27
2023-01-29T06:57:30.109Z,24.48
2023-01-29T06:58:06.059Z,24.05
2023-01-29T06:58:38.318Z,24.35
2023-01-29T06:59:12.904Z,24.83
2023-01-29T06:59:44.458Z,24.52
2023-01-29T07:00:17.287Z,24.00
2023-01-29T07:00:49.022Z,24.25
2023-01-29T07:01:34.633Z,24.05
2023-01-29T07:02:07.497Z,22.80
2023-01-29T07:02:39.135Z,22.98
2023-01-29T07:03:11.212Z,23.58
2023-01-29T07:03:43.597Z,23.40
2023-01-29T07:04:15.126Z,24.70
2023-01-29T07:04:46.686Z,25.30
2023-01-29T07:05:18.232Z,24.85
2023-01-29T07:05:53.120Z,23.83
2023-01-29T07:06:29.173Z,25.40
2023-01-29T07:07:00.708Z,23.77
2023-01-29T07:07:32.282Z,24.98
2023-01-29T07:08:04.465Z,24.45
2023-01-29T07:08:37.767Z,24.25
2023-01-29T07:09:12.785Z,24.50
2023-01-29T07:09:44.307Z,23.83
2023-01-29T07:10:16.338Z,24.52
2023-01-29T07:10:48.798Z,25.95
2023-01-29T07:11:20.365Z,24.55
2023-01-29T07:11:52.067Z,25.73
2023-01-29T07:12:23.606Z,24.25
2023-01-29T07:12:55.185Z,25.25
2023-01-29T07:13:27.096Z,25.95
2023-01-29T07:13:58.677Z,24.67
2023-01-29T07:14:31.030Z,25.52
2023-01-29T07:15:02.562Z,25.77
2023-01-29T07:15:35.880Z,26.20
2023-01-29T07:16:09.571Z,25.02
2023-01-29T07:16:41.138Z,23.95
2023-01-29T07:17:12.725Z,25.35
2023-01-29T07:17:44.233Z,25.23
2023-01-29T07:18:15.769Z,26.13
2023-01-29T07:18:47.491Z,24.30
2023-01-29T07:19:19.048Z,25.17
2023-01-29T07:19:50.606Z,24.25
2023-01-29T07:20:22.116Z,24.48
2023-01-29T07:20:53.732Z,26.02
2023-01-29T07:21:25.562Z,24.80
2023-01-29T07:21:57.113Z,26.35
2023-01-29T07:22:28.653Z,25.90
2023-01-29T07:23:00.149Z,24.40
2023-01-29T07:23:31.730Z,24.85
2023-01-29T07:24:03.507Z,25.23
2023-01-29T07:24:35.071Z,25.15
2023-01-29T07:25:08.500Z,25.92
2023-01-29T07:25:41.015Z,25.92
2023-01-29T07:26:12.583Z,24.67
2023-01-29T07:26:44.133Z,25.25
2023-01-29T07:27:15.654Z,25.38
2023-01-29T07:27:47.362Z,25.65
2023-01-29T07:28:20.387Z,24.85
2023-01-29T07:28:51.899Z,24.55
2023-01-29T07:29:23.457Z,24.58
2023-01-29T07:29:55.100Z,26.23
2023-01-29T07:30:26.643Z,25.38
2023-01-29T07:30:59.214Z,24.52
2023-01-29T07:31:30.866Z,24.05
2023-01-29T07:32:02.619Z,26.15
2023-01-29T07:32:34.147Z,24.35
2023-01-29T07:33:08.195Z,25.13
2023-01-29T07:33:39.703Z,23.60
2023-01-29T07:34:11.224Z,23.25
2023-01-29T07:34:42.734Z,26.30
2023-01-29T07:35:14.285Z,24.85
2023-01-29T07:35:45.817Z,26.02
2023-01-29T07:36:17.386Z,23.65
2023-01-29T07:36:49.150Z,25.95
2023-01-29T07:37:20.672Z,25.90
2023-01-29T07:37:52.259Z,26.35
2023-01-29T07:38:24.025Z,27.08
2023-01-29T07:38:55.750Z,25.70
2023-01-29T07:39:27.316Z,25.08
2023-01-29T07:39:58.954Z,25.08
2023-01-29T07:40:30.724Z,24.35
2023-01-29T07:41:03.250Z,26.70
2023-01-29T07:41:35.082Z,25.58
2023-01-29T07:42:07.967Z,24.45
2023-01-29T07:42:44.001Z,27.20
2023-01-29T07:43:16.290Z,23.65
2023-01-29T07:43:48.507Z,23.55
2023-01-29T07:44:20.047Z,25.45
2023-01-29T07:44:51.562Z,24.90
2023-01-29T07:45:23.078Z,24.83
2023-01-29T07:45:54.611Z,25.77
2023-01-29T07:46:26.251Z,25.58
2023-01-29T07:46:57.765Z,25.20
2023-01-29T07:47:29.260Z,23.95
2023-01-29T07:48:00.875Z,26.17
2023-01-29T07:48:32.615Z,24.90
2023-01-29T07:49:04.168Z,23.52
2023-01-29T07:49:35.731Z,25.70
2023-01-29T07:50:07.469Z,25.23
2023-01-29T07:50:40.326Z,24.45
2023-01-29T07:51:11.873Z,25.45
2023-01-29T07:51:43.511Z,23.70
2023-01-29T07:52:15.164Z,25.45